Time;durP1;ratioP1;P1;durP2;ratioP2;P2;SDS_P1;SDS_P2;PMS_P1;PMS_P2;Temp;Humidity;BMP_temperature;BMP_pressure;BME280_temperature;BME280_humidity;BME280_pressure;Samples;Min_cycle;Max_cycle;Signal;HPM_P1;HPM_P2
2021/01/02 00:02:24;;;;;;;95.40;43.08;;;3.50;99.90;;;;;;5075238;28;20047;-71
2021/01/02 00:08:00;;;;;;;86.85;41.40;;;3.50;99.90;;;;;;5112231;27;20355;-75
2021/01/02 00:10:51;;;;;;;88.97;40.67;;;3.50;99.90;;;;;;5111245;28;20024;-75
2021/01/02 00:13:39;;;;;;;91.90;41.28;;;3.50;99.90;;;;;;5111817;28;20469;-77
2021/01/02 00:16:21;;;;;;;90.57;40.88;;;3.50;99.90;;;;;;5111099;28;20089;-77
2021/01/02 00:19:04;;;;;;;98.38;41.90;;;3.50;99.90;;;;;;5111477;28;20020;-77
2021/01/02 00:21:38;;;;;;;;;;;3.50;99.90;;;;;;5112191;28;20430;-76
2021/01/02 00:26:44;;;;;;;95.72;42.47;;;3.50;99.90;;;;;;5091895;28;20355;-72
2021/01/02 00:29:20;;;;;;;93.03;41.92;;;3.50;99.90;;;;;;5073047;28;20024;-72
2021/01/02 00:32:08;;;;;;;96.78;43.10;;;3.50;99.90;;;;;;5089739;28;20381;-72
2021/01/02 00:34:52;;;;;;;91.75;40.90;;;3.60;99.90;;;;;;5090978;28;20056;-72
2021/01/02 00:37:28;;;;;;;93.65;42.00;;;3.70;99.90;;;;;;5091148;28;20549;-72
2021/01/02 00:40:05;;;;;;;93.45;41.80;;;3.60;99.90;;;;;;5089574;28;20037;-72
2021/01/02 00:42:32;;;;;;;93.50;43.20;;;3.60;99.90;;;;;;5091371;28;20030;-72
2021/01/02 00:45:00;;;;;;;92.15;40.78;;;3.60;99.90;;;;;;5089415;28;20449;-72
2021/01/02 00:47:27;;;;;;;89.07;42.30;;;3.60;99.90;;;;;;5091227;28;20020;-72
2021/01/02 00:49:55;;;;;;;89.75;41.58;;;3.60;99.90;;;;;;5090670;28;20061;-72
2021/01/02 00:53:01;;;;;;;93.90;43.10;;;3.70;99.90;;;;;;5072705;28;20531;-72
2021/01/02 00:56:07;;;;;;;92.30;40.38;;;3.70;99.90;;;;;;5090467;28;20039;-72
2021/01/02 00:59:10;;;;;;;92.28;41.72;;;3.70;99.90;;;;;;5089223;28;20359;-72
2021/01/02 01:01:43;;;;;;;73.97;33.33;;;3.70;99.90;;;;;;5090350;28;20032;-72
2021/01/02 01:04:49;;;;;;;93.05;42.20;;;3.70;99.90;;;;;;5089432;28;20024;-72
2021/01/02 01:07:18;;;;;;;99.70;42.92;;;3.70;99.90;;;;;;5090213;28;20060;-72
2021/01/02 01:09:49;;;;;;;94.68;44.15;;;3.70;99.90;;;;;;5090813;28;20021;-72
2021/01/02 01:12:18;;;;;;;100.78;44.50;;;3.70;99.90;;;;;;5089497;28;20025;-72
2021/01/02 01:14:45;;;;;;;99.35;44.60;;;3.70;99.90;;;;;;5089262;28;20043;-72
2021/01/02 01:17:17;;;;;;;99.38;42.13;;;3.70;99.90;;;;;;5090142;28;20024;-72
2021/01/02 01:19:47;;;;;;;93.93;43.67;;;3.70;99.90;;;;;;5089231;28;20362;-72
2021/01/02 01:22:15;;;;;;;93.60;41.47;;;3.70;99.90;;;;;;5072127;28;20115;-72
2021/01/02 01:24:48;;;;;;;96.13;42.60;;;3.60;99.90;;;;;;5090174;28;20442;-72
2021/01/02 01:27:27;;;;;;;94.40;42.63;;;3.70;99.90;;;;;;5090496;28;20471;-72
2021/01/02 01:29:58;;;;;;;96.38;42.90;;;3.70;99.90;;;;;;5089875;28;20038;-72
2021/01/02 01:32:25;;;;;;;98.18;43.85;;;3.70;99.90;;;;;;5088582;28;20020;-72
2021/01/02 01:35:00;;;;;;;93.28;40.85;;;3.70;99.90;;;;;;5089810;28;20031;-72
2021/01/02 01:37:29;;;;;;;98.75;44.15;;;3.70;99.90;;;;;;5080060;28;20017;-72
2021/01/02 01:39:55;;;;;;;91.30;42.30;;;3.70;99.90;;;;;;5076489;28;20031;-72
2021/01/02 01:42:38;;;;;;;92.95;44.42;;;3.80;99.90;;;;;;5076433;28;20549;-72
2021/01/02 01:45:23;;;;;;;97.20;43.15;;;3.70;99.90;;;;;;5074808;28;20038;-72
2021/01/02 01:48:07;;;;;;;94.95;43.95;;;3.70;99.90;;;;;;5076369;28;20036;-72
2021/01/02 01:51:02;;;;;;;99.28;44.70;;;3.70;99.90;;;;;;5076565;28;20017;-72
2021/01/02 01:53:58;;;;;;;98.32;44.83;;;3.70;99.90;;;;;;5075141;28;20019;-72
2021/01/02 01:56:37;;;;;;;101.28;45.38;;;3.80;99.90;;;;;;5076207;28;20101;-72
2021/01/02 01:59:21;;;;;;;100.75;44.60;;;3.70;99.90;;;;;;5075905;28;20024;-72
2021/01/02 02:01:49;;;;;;;100.18;45.15;;;3.80;99.90;;;;;;5075553;28;20029;-72
2021/01/02 02:04:52;;;;;;;99.30;44.05;;;3.70;99.90;;;;;;5076359;28;20024;-72
2021/01/02 02:07:20;;;;;;;100.75;43.53;;;3.70;99.90;;;;;;5074319;28;20432;-72
2021/01/02 02:09:58;;;;;;;100.47;45.38;;;3.70;99.90;;;;;;5075265;28;20078;-72
2021/01/02 02:12:30;;;;;;;95.07;45.60;;;3.70;99.90;;;;;;5074399;28;20020;-72
2021/01/02 02:17:44;;;;;;;98.88;45.08;;;3.70;99.90;;;;;;5091869;27;20686;-75
2021/01/02 02:20:18;;;;;;;101.93;43.30;;;3.70;99.90;;;;;;5089992;28;20021;-75
2021/01/02 02:22:44;;;;;;;101.07;44.53;;;3.70;99.90;;;;;;5091512;28;20136;-75
2021/01/02 02:25:13;;;;;;;101.68;43.60;;;3.60;99.90;;;;;;5090878;28;20016;-75
2021/01/02 02:27:42;;;;;;;102.38;44.22;;;3.70;99.90;;;;;;5091391;28;20031;-75
2021/01/02 02:30:32;;;;;;;106.20;43.85;;;3.70;99.90;;;;;;5091362;28;20020;-75
2021/01/02 02:33:00;;;;;;;102.55;44.20;;;3.70;99.90;;;;;;5091014;28;20020;-75
2021/01/02 02:35:26;;;;;;;99.78;45.05;;;3.70;99.90;;;;;;5090600;28;20055;-75
2021/01/02 02:37:53;;;;;;;94.35;43.17;;;3.70;99.90;;;;;;5090049;28;20051;-75
2021/01/02 02:40:20;;;;;;;97.28;43.33;;;3.70;99.90;;;;;;5091154;28;20107;-75
2021/01/02 02:42:54;;;;;;;94.95;43.20;;;3.70;99.90;;;;;;5090558;28;20020;-75
2021/01/02 02:45:23;;;;;;;93.32;42.47;;;3.80;99.90;;;;;;5090770;28;20013;-75
2021/01/02 02:47:53;;;;;;;99.35;43.28;;;3.70;99.90;;;;;;5089585;28;20027;-75
2021/01/02 02:50:25;;;;;;;98.90;43.95;;;3.80;99.90;;;;;;5090732;28;20473;-75
2021/01/02 02:53:09;;;;;;;88.95;42.13;;;3.70;99.90;;;;;;5090915;28;20020;-75
2021/01/02 02:55:36;;;;;;;92.38;42.22;;;3.80;99.90;;;;;;5089392;28;20154;-75
2021/01/02 02:58:02;;;;;;;92.30;44.20;;;3.80;99.90;;;;;;5090583;28;20012;-75
2021/01/02 03:00:28;;;;;;;97.55;43.85;;;3.80;99.90;;;;;;5090800;28;20020;-75
2021/01/02 03:02:54;;;;;;;99.13;45.92;;;3.80;99.90;;;;;;5090214;28;20031;-75
2021/01/02 03:05:19;;;;;;;99.55;43.95;;;3.70;99.90;;;;;;5090466;28;20043;-75
2021/01/02 03:07:47;;;;;;;96.65;45.03;;;3.80;99.90;;;;;;5090463;28;20020;-77
2021/01/02 03:10:15;;;;;;;94.35;44.20;;;3.80;99.90;;;;;;5090635;28;20051;-77
2021/01/02 03:12:43;;;;;;;98.70;45.30;;;3.80;99.90;;;;;;5090860;28;20401;-77
2021/01/02 03:15:10;;;;;;;100.50;45.75;;;3.80;99.90;;;;;;5089388;28;20027;-76
2021/01/02 03:17:36;;;;;;;99.93;43.80;;;3.80;99.90;;;;;;5090513;28;20473;-77
2021/01/02 03:20:03;;;;;;;97.40;45.38;;;3.80;99.90;;;;;;5090148;28;20036;-76
2021/01/02 03:22:28;;;;;;;103.15;46.25;;;3.80;99.90;;;;;;5090398;28;20027;-77
2021/01/02 03:24:54;;;;;;;93.10;44.15;;;3.80;99.90;;;;;;5088863;28;20369;-76
2021/01/02 03:27:21;;;;;;;99.63;45.25;;;3.80;99.90;;;;;;5085908;28;20040;-77
2021/01/02 03:29:47;;;;;;;98.95;44.10;;;3.80;99.90;;;;;;5076188;28;20473;-77
2021/01/02 03:32:12;;;;;;;103.07;46.00;;;3.70;99.90;;;;;;5076689;28;20081;-77
2021/01/02 03:34:40;;;;;;;98.68;44.42;;;3.80;99.90;;;;;;5076641;28;20500;-75
2021/01/02 03:37:06;;;;;;;89.10;41.75;;;3.80;99.90;;;;;;5076523;28;20020;-75
2021/01/02 03:39:33;;;;;;;97.95;43.38;;;3.80;99.90;;;;;;5076368;28;20373;-77
2021/01/02 03:41:58;;;;;;;91.28;43.10;;;3.80;99.90;;;;;;5076463;28;20033;-77
2021/01/02 03:44:24;;;;;;;92.05;42.70;;;3.80;99.90;;;;;;5076332;28;20032;-76
2021/01/02 03:46:49;;;;;;;94.55;41.85;;;3.70;99.90;;;;;;5076628;28;20029;-76
2021/01/02 03:49:15;;;;;;;93.20;42.75;;;3.80;99.90;;;;;;5076535;28;20039;-76
2021/01/02 03:51:40;;;;;;;98.75;44.25;;;3.70;99.90;;;;;;5074671;28;20024;-76
2021/01/02 03:54:06;;;;;;;99.95;42.85;;;3.70;99.90;;;;;;5076388;28;20078;-76
2021/01/02 03:56:31;;;;;;;95.93;41.92;;;3.70;99.90;;;;;;5076197;28;20021;-76
2021/01/02 03:58:57;;;;;;;93.47;42.17;;;3.70;99.90;;;;;;5076242;28;20032;-76
2021/01/02 04:01:22;;;;;;;92.18;42.38;;;3.70;99.90;;;;;;5076202;28;20025;-76
2021/01/02 04:03:48;;;;;;;92.20;43.67;;;3.70;99.90;;;;;;5076200;28;20374;-76
2021/01/02 04:06:13;;;;;;;102.65;44.95;;;3.70;99.90;;;;;;5075602;28;20040;-76
2021/01/02 04:08:39;;;;;;;97.18;44.28;;;3.70;99.90;;;;;;5074236;28;20032;-76
2021/01/02 04:11:04;;;;;;;97.07;43.65;;;3.70;99.90;;;;;;5076009;28;20024;-76
2021/01/02 04:13:30;;;;;;;95.90;42.15;;;3.80;99.90;;;;;;5075927;28;20447;-76
2021/01/02 04:15:55;;;;;;;102.35;44.55;;;3.70;99.90;;;;;;5075471;28;20464;-76
2021/01/02 04:18:21;;;;;;;97.82;44.28;;;3.70;99.90;;;;;;5075806;28;20067;-76
2021/01/02 04:20:48;;;;;;;100.05;45.85;;;3.70;99.90;;;;;;5074528;28;20087;-76
2021/01/02 04:23:13;;;;;;;104.50;47.42;;;3.70;99.90;;;;;;5073962;28;20021;-76
2021/01/02 04:25:40;;;;;;;104.50;44.83;;;3.70;99.90;;;;;;5073898;28;20036;-76
2021/01/02 04:28:09;;;;;;;111.00;47.05;;;3.70;99.90;;;;;;5075386;28;20060;-76
2021/01/02 04:30:34;;;;;;;105.32;46.15;;;3.70;99.90;;;;;;5075083;28;20054;-76
2021/01/02 04:33:00;;;;;;;107.68;47.78;;;3.70;99.90;;;;;;5075546;28;20500;-76
2021/01/02 04:35:25;;;;;;;105.75;45.50;;;3.70;99.90;;;;;;5073731;28;20051;-76
2021/01/02 04:37:51;;;;;;;107.85;47.13;;;3.70;99.90;;;;;;5075173;28;20048;-76
2021/01/02 04:40:16;;;;;;;113.85;46.65;;;3.70;99.90;;;;;;5074450;28;20377;-76
2021/01/02 04:42:42;;;;;;;108.80;46.28;;;3.60;99.90;;;;;;5075337;28;20027;-76
2021/01/02 04:45:09;;;;;;;110.30;47.67;;;3.60;99.90;;;;;;5075293;28;20055;-76
2021/01/02 04:47:37;;;;;;;107.13;46.90;;;3.70;99.90;;;;;;5075255;28;20052;-76
2021/01/02 04:50:05;;;;;;;102.90;46.17;;;3.70;99.90;;;;;;5074913;28;20021;-76
2021/01/02 04:52:31;;;;;;;108.32;44.70;;;3.70;99.90;;;;;;5074863;28;20021;-76
2021/01/02 04:54:58;;;;;;;106.10;45.75;;;3.60;99.90;;;;;;5075103;28;20020;-76
2021/01/02 04:57:24;;;;;;;110.80;46.35;;;3.60;99.90;;;;;;5074464;28;20552;-76
2021/01/02 04:59:50;;;;;;;104.78;47.20;;;3.70;99.90;;;;;;5075032;28;20066;-76
2021/01/02 05:02:20;;;;;;;109.50;45.75;;;3.60;99.90;;;;;;5074440;28;20025;-76
2021/01/02 05:04:47;;;;;;;109.70;47.70;;;3.70;99.90;;;;;;5074404;28;20017;-76
2021/01/02 05:07:25;;;;;;;108.93;45.42;;;3.70;99.90;;;;;;5073900;28;20492;-76
2021/01/02 05:09:51;;;;;;;103.15;44.75;;;3.70;99.90;;;;;;5073897;28;20029;-76
2021/01/02 05:12:27;;;;;;;103.20;45.10;;;3.70;99.90;;;;;;5074829;28;20492;-76
2021/01/02 05:14:58;;;;;;;102.97;45.75;;;3.70;99.90;;;;;;5074741;28;20032;-76
2021/01/02 05:17:27;;;;;;;107.85;46.80;;;3.60;99.90;;;;;;5073936;28;20126;-76
2021/01/02 05:20:02;;;;;;;100.40;44.03;;;3.60;99.90;;;;;;5074119;28;20164;-76
2021/01/02 05:22:27;;;;;;;103.40;46.45;;;3.70;99.90;;;;;;5074378;28;20104;-76
2021/01/02 05:25:18;;;;;;;96.70;42.20;;;3.70;99.90;;;;;;5074665;28;20029;-76
2021/01/02 05:27:47;;;;;;;94.43;42.95;;;3.70;99.90;;;;;;5074152;28;20023;-76
2021/01/02 05:33:08;;;;;;;94.70;42.08;;;3.60;99.90;;;;;;5112235;27;20751;-72
2021/01/02 05:35:52;;;;;;;91.63;42.85;;;3.60;99.90;;;;;;5110501;28;20043;-72
2021/01/02 05:38:26;;;;;;;91.15;41.65;;;3.60;99.90;;;;;;5111651;28;20020;-72
2021/01/02 05:40:56;;;;;;;85.07;39.80;;;3.60;99.90;;;;;;5111532;28;20110;-72
2021/01/02 05:43:24;;;;;;;81.70;37.47;;;3.60;99.90;;;;;;5111585;28;20065;-72
2021/01/02 05:45:50;;;;;;;85.32;36.65;;;3.60;99.90;;;;;;5111795;28;20031;-72
2021/01/02 05:48:18;;;;;;;80.65;38.25;;;3.60;99.90;;;;;;5110288;28;20107;-72
2021/01/02 05:51:00;;;;;;;82.45;38.15;;;3.70;99.90;;;;;;5110446;28;20457;-72
2021/01/02 05:53:35;;;;;;;79.43;35.03;;;3.70;99.90;;;;;;5110032;28;20118;-72
2021/01/02 05:58:40;;;;;;;80.72;35.70;;;3.60;99.90;;;;;;5091867;28;20393;-75
2021/01/02 06:01:17;;;;;;;82.55;35.90;;;3.60;99.90;;;;;;5091265;28;20389;-75
2021/01/02 06:03:44;;;;;;;77.97;35.38;;;3.70;99.90;;;;;;5091515;28;20029;-75
2021/01/02 06:06:12;;;;;;;73.38;34.20;;;3.60;99.90;;;;;;5091429;28;20020;-75
2021/01/02 06:08:40;;;;;;;72.15;33.58;;;3.60;99.90;;;;;;5091426;28;20025;-75
2021/01/02 06:11:08;;;;;;;75.85;35.90;;;3.60;99.90;;;;;;5091043;28;20066;-75
2021/01/02 06:13:37;;;;;;;77.03;35.53;;;3.60;99.90;;;;;;5091279;28;20017;-76
2021/01/02 06:16:05;;;;;;;78.03;34.17;;;3.60;99.90;;;;;;5090979;28;20020;-77
2021/01/02 06:18:34;;;;;;;85.05;36.65;;;3.60;99.90;;;;;;5072615;28;20027;-75
2021/01/02 06:21:02;;;;;;;81.30;36.25;;;3.60;99.90;;;;;;5091164;28;20021;-75
2021/01/02 06:23:28;;;;;;;76.97;35.40;;;3.60;99.90;;;;;;5089287;28;20488;-77
2021/01/02 06:25:55;;;;;;;71.53;34.35;;;3.70;99.90;;;;;;5091084;28;20025;-76
2021/01/02 06:28:24;;;;;;;72.65;35.72;;;3.70;99.90;;;;;;5091024;28;20453;-76
2021/01/02 06:30:56;;;;;;;74.68;34.92;;;3.60;99.90;;;;;;5089151;28;20035;-77
2021/01/02 06:33:22;;;;;;;80.85;35.38;;;3.60;99.90;;;;;;5089488;28;20095;-76
2021/01/02 06:35:48;;;;;;;75.13;33.47;;;3.60;99.90;;;;;;5090645;28;20158;-77
2021/01/02 06:38:14;;;;;;;67.00;32.03;;;3.60;99.90;;;;;;5089186;28;20111;-77
2021/01/02 06:40:43;;;;;;;75.50;34.85;;;3.60;99.90;;;;;;5090566;28;20017;-76
2021/01/02 06:43:12;;;;;;;71.22;34.03;;;3.60;99.90;;;;;;5090756;28;20051;-76
2021/01/02 06:51:04;;;;;;;73.10;36.45;;;3.60;99.90;;;;;;5112213;27;20354;-76
2021/01/02 06:53:34;;;;;;;75.82;33.92;;;3.60;99.90;;;;;;5111918;28;20059;-76
2021/01/02 06:56:07;;;;;;;72.63;33.75;;;3.60;99.90;;;;;;5111912;28;20103;-76
2021/01/02 06:58:36;;;;;;;78.15;34.22;;;3.60;99.90;;;;;;5111632;28;20051;-76
2021/01/02 07:01:04;;;;;;;77.82;36.58;;;3.60;99.90;;;;;;5111817;28;20048;-76
2021/01/02 07:03:46;;;;;;;70.15;33.70;;;3.60;99.90;;;;;;5111488;28;20054;-76
2021/01/02 07:06:31;;;;;;;74.70;34.58;;;3.60;99.90;;;;;;5111440;28;20016;-76
2021/01/02 07:09:20;;;;;;;73.25;33.67;;;3.50;99.90;;;;;;5110991;28;20024;-76
2021/01/02 07:11:47;;;;;;;78.13;34.53;;;3.60;99.90;;;;;;5111009;28;20026;-76
2021/01/02 07:16:57;;;;;;;79.43;36.10;;;3.50;99.90;;;;;;5112274;27;20746;-71
2021/01/02 07:19:35;;;;;;;73.80;36.08;;;3.50;99.90;;;;;;5110442;28;20035;-71
2021/01/02 07:22:17;;;;;;;78.20;35.70;;;3.50;99.90;;;;;;5093136;28;20024;-71
2021/01/02 07:24:47;;;;;;;77.20;35.28;;;3.50;99.90;;;;;;5110588;28;20016;-71
2021/01/02 07:27:18;;;;;;;71.97;35.10;;;3.50;99.90;;;;;;5111812;28;20027;-71
2021/01/02 07:29:48;;;;;;;74.28;34.70;;;3.40;99.90;;;;;;5111760;28;20033;-70
2021/01/02 07:32:20;;;;;;;82.65;37.22;;;3.50;99.90;;;;;;5111680;28;20507;-71
2021/01/02 07:34:50;;;;;;;78.80;36.70;;;3.50;99.90;;;;;;5111585;28;20020;-71
2021/01/02 07:37:19;;;;;;;78.22;36.20;;;3.40;99.90;;;;;;5109831;28;20020;-71
2021/01/02 07:39:54;;;;;;;81.18;37.70;;;3.40;99.90;;;;;;5111610;28;20043;-71
2021/01/02 07:42:22;;;;;;;83.60;39.45;;;3.40;99.90;;;;;;5111507;28;20103;-71
2021/01/02 07:45:01;;;;;;;83.60;36.80;;;3.40;99.90;;;;;;5111492;28;20035;-70
2021/01/02 07:47:27;;;;;;;83.03;36.35;;;3.40;99.90;;;;;;5110710;28;20039;-70
2021/01/02 07:50:11;;;;;;;82.88;37.00;;;3.40;99.90;;;;;;5110243;28;20024;-71
2021/01/02 07:52:45;;;;;;;79.70;37.55;;;3.40;99.90;;;;;;5111387;28;20085;-71
2021/01/02 07:55:11;;;;;;;85.50;35.80;;;3.40;99.90;;;;;;5111196;28;20077;-70
2021/01/02 07:57:37;;;;;;;87.40;36.13;;;3.50;99.90;;;;;;5111255;28;20074;-71
2021/01/02 08:00:05;;;;;;;89.03;38.67;;;3.40;99.90;;;;;;5111162;28;20501;-70
2021/01/02 08:02:32;;;;;;;83.38;35.88;;;3.40;99.90;;;;;;5111127;28;20031;-71
2021/01/02 08:04:57;;;;;;;80.15;37.33;;;3.40;99.90;;;;;;5110808;28;20173;-71
2021/01/02 08:07:23;;;;;;;76.38;36.35;;;3.40;99.90;;;;;;5109884;28;20111;-71
2021/01/02 08:09:49;;;;;;;81.43;34.38;;;3.50;99.90;;;;;;5110970;28;20048;-71
2021/01/02 08:12:17;;;;;;;74.13;34.53;;;3.50;99.90;;;;;;5109414;28;20028;-71
2021/01/02 08:14:45;;;;;;;77.50;34.15;;;3.50;99.90;;;;;;5110358;28;20108;-70
2021/01/02 08:17:13;;;;;;;74.63;33.65;;;3.50;99.90;;;;;;5110608;28;20378;-71
2021/01/02 08:22:31;;;;;;;72.20;34.38;;;3.50;99.90;;;;;;5091840;28;20401;-74
2021/01/02 08:24:59;;;;;;;72.10;33.35;;;3.50;99.90;;;;;;5090034;28;20033;-74
2021/01/02 08:27:26;;;;;;;69.80;33.90;;;3.50;99.90;;;;;;5091240;28;20104;-74
2021/01/02 08:29:53;;;;;;;70.82;33.90;;;3.50;99.90;;;;;;5091442;28;20090;-74
2021/01/02 08:32:21;;;;;;;65.80;32.03;;;3.50;99.90;;;;;;5091384;28;20108;-76
2021/01/02 08:34:47;;;;;;;63.35;31.17;;;3.50;99.90;;;;;;5091332;28;20461;-76
2021/01/02 08:37:17;;;;;;;67.53;31.88;;;3.60;99.90;;;;;;5091277;28;20051;-76
2021/01/02 08:39:43;;;;;;;71.68;34.05;;;3.50;99.90;;;;;;5091265;28;20119;-74
2021/01/02 08:42:09;;;;;;;66.65;32.15;;;3.50;99.90;;;;;;5090814;28;20035;-75
2021/01/02 08:44:42;;;;;;;67.40;31.58;;;3.60;99.90;;;;;;5089451;28;20098;-74
2021/01/02 08:47:08;;;;;;;67.45;30.55;;;3.60;99.90;;;;;;5091128;28;20473;-74
2021/01/02 08:49:44;;;;;;;62.45;28.85;;;3.60;99.90;;;;;;5090804;28;20024;-74
2021/01/02 08:52:26;;;;;;;63.58;31.77;;;3.60;99.90;;;;;;5089632;28;20024;-74
2021/01/02 08:54:54;;;;;;;57.47;29.42;;;3.60;99.90;;;;;;5090671;28;20021;-74
2021/01/02 08:57:28;;;;;;;60.13;30.33;;;3.70;99.90;;;;;;5090904;28;20484;-74
2021/01/02 09:00:12;;;;;;;63.20;30.77;;;3.70;99.90;;;;;;5089017;28;20028;-74
2021/01/02 09:02:39;;;;;;;60.10;31.40;;;3.70;99.90;;;;;;5089278;28;20162;-74
2021/01/02 09:05:08;;;;;;;65.05;32.22;;;3.70;99.90;;;;;;5090694;28;20028;-75
2021/01/02 09:07:34;;;;;;;59.30;31.05;;;3.70;99.90;;;;;;5089279;28;20533;-75
2021/01/02 09:10:19;;;;;;;60.90;29.92;;;3.70;99.90;;;;;;5090677;28;20025;-75
2021/01/02 09:13:00;;;;;;;64.53;30.90;;;3.80;99.90;;;;;;5090594;28;20035;-75
2021/01/02 09:15:50;;;;;;;59.85;29.20;;;3.80;99.90;;;;;;5088716;28;20515;-75
2021/01/02 09:18:18;;;;;;;57.85;28.10;;;3.80;99.90;;;;;;5090397;28;20044;-75
2021/01/02 09:20:44;;;;;;;57.20;29.40;;;3.80;99.90;;;;;;5089935;28;20079;-75
2021/01/02 09:23:10;;;;;;;53.75;27.00;;;3.80;99.90;;;;;;5089888;28;20020;-77
2021/01/02 09:25:37;;;;;;;58.38;28.40;;;3.80;99.90;;;;;;5090363;28;20052;-77
2021/01/02 09:28:16;;;;;;;58.28;28.75;;;3.80;99.90;;;;;;5090042;28;20099;-76
2021/01/02 09:30:42;;;;;;;59.15;27.55;;;3.80;99.90;;;;;;5088784;28;20028;-77
2021/01/02 09:33:08;;;;;;;58.63;28.77;;;3.90;99.90;;;;;;5080118;28;20020;-77
2021/01/02 09:35:35;;;;;;;53.63;26.98;;;3.90;99.90;;;;;;5075579;28;20129;-77
2021/01/02 09:38:03;;;;;;;56.50;28.23;;;3.90;99.90;;;;;;5076655;28;20028;-77
2021/01/02 09:40:28;;;;;;;57.08;29.13;;;3.90;99.90;;;;;;5076024;28;20381;-77
2021/01/02 09:42:54;;;;;;;61.90;29.55;;;4.00;99.90;;;;;;5076255;28;20033;-77
2021/01/02 09:45:19;;;;;;;54.90;28.52;;;4.00;99.90;;;;;;5076207;28;20412;-76
2021/01/02 09:47:45;;;;;;;53.17;27.35;;;4.00;99.90;;;;;;5076552;28;20078;-76
2021/01/02 09:50:11;;;;;;;57.28;28.20;;;4.00;99.90;;;;;;5076563;28;20028;-76
2021/01/02 09:52:37;;;;;;;60.05;28.98;;;4.10;99.90;;;;;;5076434;28;20454;-76
2021/01/02 09:55:03;;;;;;;55.83;28.08;;;4.10;99.90;;;;;;5075854;28;20167;-76
2021/01/02 09:57:29;;;;;;;56.72;27.92;;;4.10;99.90;;;;;;5076332;28;20063;-76
2021/01/02 09:59:54;;;;;;;60.03;28.00;;;4.10;99.90;;;;;;5076288;28;20029;-76
2021/01/02 10:02:20;;;;;;;71.15;36.13;;;4.10;99.90;;;;;;5076226;28;20032;-77
2021/01/02 10:04:48;;;;;;;56.45;29.33;;;4.10;99.90;;;;;;5076220;28;20071;-76
2021/01/02 10:07:16;;;;;;;59.20;28.90;;;4.20;99.90;;;;;;5076157;28;20013;-77
2021/01/02 10:09:45;;;;;;;56.47;27.98;;;4.10;99.90;;;;;;5076193;28;20055;-76
2021/01/02 10:12:12;;;;;;;63.83;29.02;;;4.30;99.90;;;;;;5076006;28;20025;-76
2021/01/02 10:14:38;;;;;;;60.47;29.92;;;4.40;99.90;;;;;;5076050;28;20032;-76
2021/01/02 10:17:05;;;;;;;65.30;30.33;;;4.30;99.90;;;;;;5076048;28;20518;-77
2021/01/02 10:19:32;;;;;;;60.05;27.30;;;4.30;99.90;;;;;;5075953;28;20549;-76
2021/01/02 10:21:59;;;;;;;59.40;29.58;;;4.40;99.90;;;;;;5075200;28;20076;-76
2021/01/02 10:24:26;;;;;;;59.58;29.90;;;4.30;99.90;;;;;;5075567;28;20039;-76
2021/01/02 10:26:51;;;;;;;60.60;31.25;;;4.40;99.90;;;;;;5074699;28;20450;-76
2021/01/02 10:29:17;;;;;;;58.20;29.92;;;4.30;99.90;;;;;;5075768;28;20078;-76
2021/01/02 10:31:44;;;;;;;58.95;29.27;;;4.30;99.90;;;;;;5075756;28;20082;-77
2021/01/02 10:34:09;;;;;;;59.13;29.08;;;4.40;99.90;;;;;;5073876;28;20081;-76
2021/01/02 10:36:35;;;;;;;59.55;28.17;;;4.40;99.90;;;;;;5075642;28;20100;-76
2021/01/02 10:39:00;;;;;;;55.17;27.83;;;4.40;99.90;;;;;;5075578;28;20481;-76
2021/01/02 10:41:26;;;;;;;58.00;29.60;;;4.40;99.90;;;;;;5075364;28;20028;-76
2021/01/02 10:43:52;;;;;;;54.67;27.40;;;4.50;99.90;;;;;;5074489;28;20024;-76
2021/01/02 10:46:17;;;;;;;58.75;28.50;;;4.60;99.90;;;;;;5075431;28;20024;-76
2021/01/02 10:48:43;;;;;;;53.97;28.23;;;4.60;99.90;;;;;;5075389;28;20024;-76
2021/01/02 10:51:17;;;;;;;57.95;27.95;;;4.60;99.90;;;;;;5075004;28;20059;-76
2021/01/02 10:53:43;;;;;;;56.28;28.85;;;4.70;99.90;;;;;;5075278;28;20024;-77
2021/01/02 10:56:11;;;;;;;55.88;28.65;;;4.70;99.90;;;;;;5074669;28;20035;-76
2021/01/02 10:58:37;;;;;;;51.30;27.83;;;4.70;99.90;;;;;;5075191;28;20486;-76
2021/01/02 11:01:04;;;;;;;56.22;28.38;;;4.70;99.90;;;;;;5074758;28;20112;-76
2021/01/02 11:03:30;;;;;;;59.65;27.65;;;4.70;99.90;;;;;;5074797;28;20021;-76
2021/01/02 11:05:57;;;;;;;54.63;27.83;;;4.60;99.90;;;;;;5075019;28;20021;-77
2021/01/02 11:08:23;;;;;;;62.95;28.05;;;4.70;99.90;;;;;;5074697;28;20462;-76
2021/01/02 11:10:48;;;;;;;59.72;28.48;;;4.70;99.90;;;;;;5074900;28;20040;-76
2021/01/02 11:13:14;;;;;;;58.72;29.50;;;4.60;99.90;;;;;;5074613;28;20037;-77
2021/01/02 11:15:39;;;;;;;59.88;28.10;;;4.60;99.90;;;;;;5074765;28;20484;-77
2021/01/02 11:18:05;;;;;;;58.35;29.42;;;4.70;99.90;;;;;;5074428;28;20390;-76
2021/01/02 11:20:31;;;;;;;57.95;29.83;;;4.70;99.90;;;;;;5074333;28;20044;-77
2021/01/02 11:22:56;;;;;;;60.45;29.88;;;4.70;99.90;;;;;;5074400;28;20373;-77
2021/01/02 11:25:22;;;;;;;61.90;29.33;;;4.60;99.90;;;;;;5074652;28;20472;-77
2021/01/02 11:27:47;;;;;;;61.63;31.15;;;4.60;99.90;;;;;;5072767;28;20017;-77
2021/01/02 11:30:13;;;;;;;58.05;28.80;;;4.60;99.90;;;;;;5074268;28;20020;-76
2021/01/02 11:32:40;;;;;;;59.60;29.35;;;4.60;99.90;;;;;;5074516;28;20035;-77
2021/01/02 11:35:06;;;;;;;55.50;28.02;;;4.60;99.90;;;;;;5073325;28;20017;-76
2021/01/02 11:37:32;;;;;;;65.63;30.25;;;4.60;99.90;;;;;;5074441;28;20035;-77
2021/01/02 11:39:57;;;;;;;60.20;28.70;;;4.40;99.90;;;;;;5074396;28;20095;-76
2021/01/02 11:42:23;;;;;;;58.13;28.50;;;4.40;99.90;;;;;;5074005;28;20031;-76
2021/01/02 11:44:48;;;;;;;55.97;28.27;;;4.50;99.90;;;;;;5074316;28;20042;-76
2021/01/02 11:47:14;;;;;;;58.58;29.48;;;4.60;99.90;;;;;;5074321;28;20032;-77
2021/01/02 11:49:40;;;;;;;57.58;29.80;;;4.70;99.90;;;;;;5074266;28;20043;-77
2021/01/02 11:52:07;;;;;;;55.45;29.05;;;4.70;99.90;;;;;;5074201;28;20150;-76
2021/01/02 11:54:34;;;;;;;62.92;27.90;;;4.80;99.90;;;;;;5073650;28;20474;-77
2021/01/02 11:57:01;;;;;;;65.78;30.65;;;4.80;99.90;;;;;;5073963;28;20024;-76
2021/01/02 11:59:27;;;;;;;57.28;28.38;;;4.90;99.90;;;;;;5072898;28;20020;-77
2021/01/02 12:01:56;;;;;;;62.30;30.40;;;4.90;99.90;;;;;;5074000;28;20033;-77
2021/01/02 12:04:25;;;;;;;59.60;29.77;;;4.80;99.90;;;;;;5073781;28;20021;-76
2021/01/02 12:06:52;;;;;;;59.65;29.80;;;4.80;99.90;;;;;;5074047;28;20021;-77
2021/01/02 12:09:21;;;;;;;64.53;31.15;;;4.70;99.90;;;;;;5073655;28;20044;-77
2021/01/02 12:11:48;;;;;;;64.80;31.80;;;4.70;99.90;;;;;;5073938;28;20025;-77
2021/01/02 12:14:17;;;;;;;61.75;29.95;;;4.70;99.90;;;;;;5073977;28;20028;-77
2021/01/02 12:16:47;;;;;;;58.22;29.10;;;4.60;99.90;;;;;;5072968;28;20115;-77
2021/01/02 12:19:16;;;;;;;59.80;28.38;;;4.60;99.90;;;;;;5072116;28;20028;-77
2021/01/02 12:21:41;;;;;;;57.55;27.88;;;4.70;99.90;;;;;;5073251;28;20044;-77
2021/01/02 12:24:08;;;;;;;60.42;28.60;;;4.80;99.90;;;;;;5073942;28;20028;-76
2021/01/02 12:26:34;;;;;;;56.63;28.20;;;4.70;99.90;;;;;;5073785;28;20330;-76
2021/01/02 12:28:59;;;;;;;58.88;28.15;;;4.70;99.90;;;;;;5073483;28;20103;-77
2021/01/02 12:31:27;;;;;;;60.33;29.33;;;4.80;99.90;;;;;;5073146;28;20358;-77
2021/01/02 12:33:54;;;;;;;58.92;28.33;;;4.80;99.90;;;;;;5073262;28;20027;-76
2021/01/02 12:36:33;;;;;;;55.72;29.08;;;4.90;99.90;;;;;;5072012;28;20032;-76
2021/01/02 12:38:59;;;;;;;58.92;29.73;;;4.90;99.90;;;;;;5073509;28;20024;-77
2021/01/02 12:41:24;;;;;;;61.33;27.65;;;4.90;99.90;;;;;;5073705;28;20500;-77
2021/01/02 12:43:50;;;;;;;58.80;28.52;;;4.90;99.90;;;;;;5073164;28;20029;-76
2021/01/02 12:46:17;;;;;;;62.90;29.88;;;5.00;99.90;;;;;;5073668;28;20024;-77
2021/01/02 12:48:44;;;;;;;64.03;30.77;;;5.00;99.90;;;;;;5073529;28;20043;-76
2021/01/02 12:51:10;;;;;;;56.17;28.83;;;5.00;99.90;;;;;;5072217;28;20099;-76
2021/01/02 12:53:37;;;;;;;61.33;29.05;;;5.10;99.90;;;;;;5073621;28;20055;-77
2021/01/02 12:56:03;;;;;;;51.75;27.23;;;5.00;99.90;;;;;;5073618;28;20031;-77
2021/01/02 12:58:29;;;;;;;55.40;27.65;;;5.10;99.90;;;;;;5073585;28;20112;-77
2021/01/02 13:00:55;;;;;;;54.75;27.50;;;5.10;99.90;;;;;;5071998;28;20099;-77
2021/01/02 13:03:20;;;;;;;63.45;29.80;;;5.10;99.90;;;;;;5073537;28;20480;-77
2021/01/02 13:05:46;;;;;;;57.63;28.65;;;5.10;99.90;;;;;;5073505;28;20074;-77
2021/01/02 13:08:11;;;;;;;59.72;28.65;;;5.20;99.90;;;;;;5075517;28;20032;-75
2021/01/02 13:10:37;;;;;;;57.40;29.50;;;5.20;99.90;;;;;;5077134;28;20063;-77
2021/01/02 13:13:05;;;;;;;61.47;29.60;;;5.20;99.90;;;;;;5076857;28;20489;-76
2021/01/02 13:15:31;;;;;;;53.75;27.45;;;5.20;99.90;;;;;;5076828;28;20043;-76